Time;durP1;ratioP1;P1;durP2;ratioP2;P2;SDS_P1;SDS_P2;PMS_P1;PMS_P2;Temp;Humidity;BMP_temperature;BMP_pressure;BME280_temperature;BME280_humidity;BME280_pressure;Samples;Min_cycle;Max_cycle;Signal;HPM_P1;HPM_P2
2021/10/12 00:00:58;;;;;;;;;;;;;;;12.34;100.00;99727.81;4996013;28;19915;-77
2021/10/12 00:03:23;;;;;;;;;;;;;;;12.29;100.00;99722.78;4995779;28;19915;-77
2021/10/12 00:05:49;;;;;;;;;;;;;;;12.31;100.00;99714.97;4996322;28;19942;-76
2021/10/12 00:08:14;;;;;;;;;;;;;;;11.91;100.00;99724.63;4995411;28;19923;-77
2021/10/12 00:10:39;;;;;;;;;;;;;;;11.96;100.00;99721.94;4996273;28;19995;-77
2021/10/12 00:13:05;;;;;;;;;;;;;;;12.52;100.00;99706.63;4996469;28;19915;-77
2021/10/12 00:15:30;;;;;;;;;;;;;;;11.93;100.00;99706.53;4996599;28;19963;-77
2021/10/12 00:17:55;;;;;;;;;;;;;;;12.40;100.00;99704.38;4995507;28;21181;-77
2021/10/12 00:20:21;;;;;;;;;;;;;;;12.07;100.00;99698.44;4995928;28;19915;-76
2021/10/12 00:22:46;;;;;;;;;;;;;;;11.87;100.00;99712.69;4914716;29;19961;-77
2021/10/12 00:25:11;;;;;;;;;;;;;;;11.69;100.00;99713.13;4996100;28;19926;-78
2021/10/12 00:27:37;;;;;;;;;;;;;;;12.00;100.00;99713.22;4995701;28;19915;-77
2021/10/12 00:30:04;;;;;;;;;;;;;;;11.64;100.00;99713.25;4983730;28;19919;-77
2021/10/12 00:32:29;;;;;;;;;;;;;;;11.83;100.00;99710.19;4928471;29;20345;-76
2021/10/12 00:34:54;;;;;;;;;;;;;;;12.47;100.00;99698.16;4945940;28;19913;-78
2021/10/12 00:37:20;;;;;;;;;;;;;;;12.37;100.00;99694.16;4926736;28;19941;-77
2021/10/12 00:39:45;;;;;;;;;;;;;;;11.73;100.00;99710.44;4912482;29;19919;-76
2021/10/12 00:42:10;;;;;;;;;;;;;;;11.55;100.00;99710.88;4967108;28;19945;-76
2021/10/12 00:44:35;;;;;;;;;;;;;;;11.26;100.00;99721.91;5007321;28;19964;-77
2021/10/12 00:47:01;;;;;;;;;;;;;;;11.67;100.00;99718.31;4919908;29;19915;-78
2021/10/12 00:49:26;;;;;;;;;;;;;;;11.89;100.00;99720.41;4894117;29;20283;-77
2021/10/12 00:51:52;;;;;;;;;;;;;;;12.10;100.00;99704.34;4906505;28;19962;-77
2021/10/12 00:54:17;;;;;;;;;;;;;;;11.78;100.00;99704.31;4912925;29;19977;-79
2021/10/12 00:56:43;;;;;;;;;;;;;;;11.85;100.00;99708.44;4994098;28;19968;-78
2021/10/12 00:59:09;;;;;;;;;;;;;;;11.53;100.00;99712.66;4928570;29;19919;-78
2021/10/12 01:01:36;;;;;;;;;;;;;;;11.98;100.00;99702.09;4897308;29;19923;-77
2021/10/12 01:04:01;;;;;;;;;;;;;;;11.66;100.00;99700.31;4969803;28;20373;-80
2021/10/12 01:06:27;;;;;;;;;;;;;;;11.93;100.00;99691.06;4991440;28;19965;-79
2021/10/12 01:08:52;;;;;;;;;;;;;;;11.97;100.00;99694.38;4917992;28;19919;-80
2021/10/12 01:11:17;;;;;;;;;;;;;;;12.03;100.00;99679.56;4931966;29;19915;-78
2021/10/12 01:13:42;;;;;;;;;;;;;;;11.80;100.00;99679.31;4931414;29;19971;-76
2021/10/12 01:16:08;;;;;;;;;;;;;;;12.09;100.00;99668.25;4975778;28;19920;-77
2021/10/12 01:18:33;;;;;;;;;;;;;;;11.91;100.00;99662.69;4915592;29;19970;-79
2021/10/12 01:20:58;;;;;;;;;;;;;;;11.71;100.00;99668.34;4943909;28;19952;-78
2021/10/12 01:23:24;;;;;;;;;;;;;;;11.86;100.00;99673.97;4916624;29;19915;-79
2021/10/12 01:25:49;;;;;;;;;;;;;;;11.57;100.00;99672.16;4916359;29;19923;-78
2021/10/12 01:28:15;;;;;;;;;;;;;;;11.60;100.00;99672.91;4930931;29;19965;-78
2021/10/12 01:30:40;;;;;;;;;;;;;;;11.37;100.00;99672.66;4930818;29;19919;-78
2021/10/12 01:33:06;;;;;;;;;;;;;;;11.73;100.00;99669.16;4930552;29;19923;-79
2021/10/12 01:35:31;;;;;;;;;;;;;;;11.99;100.00;99649.56;4930872;29;19922;-78
2021/10/12 01:37:57;;;;;;;;;;;;;;;11.49;100.00;99649.13;4914716;29;19929;-79
2021/10/12 01:40:22;;;;;;;;;;;;;;;11.20;100.00;99653.28;4914984;29;19927;-78
2021/10/12 01:42:48;;;;;;;;;;;;;;;11.55;100.00;99641.25;4914685;29;19922;-79
2021/10/12 01:45:13;;;;;;;;;;;;;;;11.00;100.00;99646.03;4914724;29;20330;-78
2021/10/12 01:47:39;;;;;;;;;;;;;;;11.64;100.00;99638.44;4930580;29;19915;-79
2021/10/12 01:50:05;;;;;;;;;;;;;;;11.46;100.00;99636.31;4948844;28;19923;-78
2021/10/12 01:52:30;;;;;;;;;;;;;;;11.06;100.00;99645.03;4931942;28;19917;-80
2021/10/12 01:54:55;;;;;;;;;;;;;;;10.84;100.00;99650.69;5016625;28;20388;-79
2021/10/12 01:57:21;;;;;;;;;;;;;;;11.09;100.00;99663.84;4962029;28;20006;-79
2021/10/12 01:59:46;;;;;;;;;;;;;;;11.24;100.00;99649.75;4914332;29;19919;-78
2021/10/12 02:02:11;;;;;;;;;;;;;;;11.54;100.00;99636.13;4915146;29;19930;-79
2021/10/12 02:04:37;;;;;;;;;;;;;;;11.60;100.00;99625.66;4914646;29;19915;-79
2021/10/12 02:07:02;;;;;;;;;;;;;;;11.92;100.00;99612.75;4914789;29;19940;-79
2021/10/12 02:09:28;;;;;;;;;;;;;;;11.49;100.00;99602.69;4899151;28;20009;-78
2021/10/12 02:11:53;;;;;;;;;;;;;;;11.66;100.00;99600.53;4915517;29;19923;-78
2021/10/12 02:14:19;;;;;;;;;;;;;;;11.92;100.00;99596.41;4914735;29;20446;-79
2021/10/12 02:16:44;;;;;;;;;;;;;;;11.50;100.00;99588.94;4915345;29;20395;-78
2021/10/12 02:19:09;;;;;;;;;;;;;;;11.56;100.00;99598.22;4915190;29;19938;-78
2021/10/12 02:21:35;;;;;;;;;;;;;;;10.96;100.00;99592.84;4914941;29;20466;-79
2021/10/12 02:24:00;;;;;;;;;;;;;;;11.21;100.00;99600.84;4913879;29;19922;-79
2021/10/12 02:26:25;;;;;;;;;;;;;;;11.00;100.00;99607.38;4929900;29;19915;-78
2021/10/12 02:28:51;;;;;;;;;;;;;;;11.62;100.00;99601.50;4929487;29;19926;-78
2021/10/12 02:31:16;;;;;;;;;;;;;;;11.21;100.00;99607.72;4913621;29;20002;-78
2021/10/12 02:33:42;;;;;;;;;;;;;;;11.32;100.00;99612.63;4915443;29;19922;-78
2021/10/12 02:36:07;;;;;;;;;;;;;;;11.29;100.00;99606.66;4914761;28;20363;-78
2021/10/12 02:38:32;;;;;;;;;;;;;;;11.18;100.00;99613.81;4898601;29;20362;-77
2021/10/12 02:40:58;;;;;;;;;;;;;;;11.14;100.00;99612.19;4914884;29;19986;-78
2021/10/12 02:43:23;;;;;;;;;;;;;;;10.75;100.00;99614.81;4914122;29;20386;-77
2021/10/12 02:45:48;;;;;;;;;;;;;;;10.69;100.00;99627.84;4915030;29;19915;-77
2021/10/12 02:48:14;;;;;;;;;;;;;;;10.97;100.00;99619.47;4898382;29;19947;-77
2021/10/12 02:50:40;;;;;;;;;;;;;;;10.55;100.00;99629.88;4897524;28;19912;-79
2021/10/12 02:53:05;;;;;;;;;;;;;;;10.46;100.00;99633.50;4913404;29;19922;-79
2021/10/12 02:55:30;;;;;;;;;;;;;;;10.51;100.00;99641.13;4897616;29;19919;-79
2021/10/12 02:57:55;;;;;;;;;;;;;;;10.43;100.00;99633.56;4913634;29;19919;-78
2021/10/12 03:00:21;;;;;;;;;;;;;;;10.45;100.00;99647.25;4914776;29;19922;-77
2021/10/12 03:02:46;;;;;;;;;;;;;;;10.81;100.00;99632.72;4891009;29;20002;-78
2021/10/12 03:05:11;;;;;;;;;;;;;;;11.19;100.00;99627.53;4910118;29;19919;-77
2021/10/12 03:07:39;;;;;;;;;;;;;;;10.77;100.00;99618.22;4894392;29;19919;-78
2021/10/12 03:10:05;;;;;;;;;;;;;;;10.77;100.00;99614.81;4909982;29;19969;-77
2021/10/12 03:12:30;;;;;;;;;;;;;;;10.62;100.00;99623.72;4894550;29;20373;-78
2021/10/12 03:14:55;;;;;;;;;;;;;;;10.67;100.00;99606.41;4909719;29;20018;-77
2021/10/12 03:17:21;;;;;;;;;;;;;;;10.40;100.00;99619.03;4894461;29;19938;-77
2021/10/12 03:19:46;;;;;;;;;;;;;;;10.50;100.00;99616.25;4909507;29;19963;-77
2021/10/12 03:22:14;;;;;;;;;;;;;;;10.50;100.00;99624.81;4895644;29;19998;-78
2021/10/12 03:24:39;;;;;;;;;;;;;;;10.53;100.00;99627.31;5003872;28;20353;-78
2021/10/12 03:27:08;;;;;;;;;;;;;;;10.48;100.00;99630.91;5009084;28;19941;-77
2021/10/12 03:29:33;;;;;;;;;;;;;;;10.42;100.00;99622.44;4993835;28;19914;-79
2021/10/12 03:31:59;;;;;;;;;;;;;;;10.39;100.00;99627.63;5008746;28;19921;-78
2021/10/12 03:34:26;;;;;;;;;;;;;;;10.12;100.00;99638.47;4992421;28;19917;-77
2021/10/12 03:36:51;;;;;;;;;;;;;;;10.36;100.00;99653.44;4918800;28;19922;-78
2021/10/12 03:39:16;;;;;;;;;;;;;;;10.42;100.00;99653.31;4914204;29;20322;-78
2021/10/12 03:41:42;;;;;;;;;;;;;;;10.71;100.00;99641.53;4913847;29;20298;-78
2021/10/12 03:44:07;;;;;;;;;;;;;;;10.59;100.00;99634.09;4913062;29;19962;-78
2021/10/12 03:46:32;;;;;;;;;;;;;;;10.73;100.00;99626.88;4913419;29;19968;-77
2021/10/12 03:48:58;;;;;;;;;;;;;;;10.75;100.00;99613.97;4912713;29;19938;-76
2021/10/12 03:51:23;;;;;;;;;;;;;;;10.82;100.00;99606.06;4914661;29;19922;-77
2021/10/12 03:53:48;;;;;;;;;;;;;;;10.93;100.00;99592.94;4914171;29;19915;-77
2021/10/12 03:56:13;;;;;;;;;;;;;;;11.09;100.00;99583.09;4928637;29;19938;-77
2021/10/12 03:58:39;;;;;;;;;;;;;;;10.86;100.00;99569.03;4914002;29;19919;-77
2021/10/12 04:01:04;;;;;;;;;;;;;;;10.81;100.00;99576.03;4928558;29;20069;-77
2021/10/12 04:03:30;;;;;;;;;;;;;;;10.75;100.00;99581.34;4912747;29;19915;-79
2021/10/12 04:05:55;;;;;;;;;;;;;;;10.82;100.00;99580.31;4927864;29;19923;-78
2021/10/12 04:08:20;;;;;;;;;;;;;;;10.97;100.00;99573.06;4913066;29;20002;-78
2021/10/12 04:10:46;;;;;;;;;;;;;;;10.77;100.00;99560.69;4912773;29;19966;-78
2021/10/12 04:13:11;;;;;;;;;;;;;;;10.65;100.00;99561.81;4912971;29;20013;-77
2021/10/12 04:15:36;;;;;;;;;;;;;;;10.45;100.00;99565.69;4913863;29;19942;-77
2021/10/12 04:18:01;;;;;;;;;;;;;;;10.63;100.00;99566.19;4912911;29;19965;-77
2021/10/12 04:20:27;;;;;;;;;;;;;;;10.36;100.00;99559.91;4913017;29;19969;-77
2021/10/12 04:22:54;;;;;;;;;;;;;;;10.37;100.00;99561.59;4897364;29;19919;-77
2021/10/12 04:25:19;;;;;;;;;;;;;;;10.34;100.00;99559.94;4914090;29;20418;-78
2021/10/12 04:27:44;;;;;;;;;;;;;;;10.37;100.00;99554.72;4897051;29;19915;-77
2021/10/12 04:30:10;;;;;;;;;;;;;;;10.42;100.00;99563.19;4897426;29;19915;-76
2021/10/12 04:32:35;;;;;;;;;;;;;;;10.59;100.00;99551.66;4913897;29;19961;-78
2021/10/12 04:35:01;;;;;;;;;;;;;;;10.86;100.00;99540.69;4916028;29;20006;-77
2021/10/12 04:37:26;;;;;;;;;;;;;;;10.81;100.00;99532.25;4899949;28;20440;-77
2021/10/12 04:39:51;;;;;;;;;;;;;;;11.12;100.00;99525.47;4915225;29;19919;-77
2021/10/12 04:42:17;;;;;;;;;;;;;;;10.98;100.00;99505.22;4900109;29;19923;-77
2021/10/12 04:44:42;;;;;;;;;;;;;;;10.78;100.00;99514.25;4915771;29;20010;-78
2021/10/12 04:47:10;;;;;;;;;;;;;;;10.79;100.00;99518.56;4917275;29;20001;-77
2021/10/12 04:49:36;;;;;;;;;;;;;;;11.16;100.00;99507.31;4899844;28;19923;-77
2021/10/12 04:52:01;;;;;;;;;;;;;;;11.13;100.00;99491.94;4916788;29;19923;-77
2021/10/12 04:54:27;;;;;;;;;;;;;;;10.72;100.00;99492.97;4916102;28;20294;-78
2021/10/12 04:56:52;;;;;;;;;;;;;;;10.49;100.00;99506.41;4915955;29;20446;-79
2021/10/12 04:59:17;;;;;;;;;;;;;;;11.00;100.00;99516.31;4915397;29;19919;-78
2021/10/12 05:01:43;;;;;;;;;;;;;;;10.76;100.00;99503.16;4915657;29;20001;-78
2021/10/12 05:04:08;;;;;;;;;;;;;;;10.92;100.00;99489.88;4916814;29;20264;-78
2021/10/12 05:06:33;;;;;;;;;;;;;;;11.21;100.00;99489.97;4931336;29;19939;-79
2021/10/12 05:08:59;;;;;;;;;;;;;;;10.83;100.00;99483.22;4915229;29;19923;-78
2021/10/12 05:11:25;;;;;;;;;;;;;;;11.28;100.00;99490.66;4931135;29;20026;-77
2021/10/12 05:13:51;;;;;;;;;;;;;;;11.28;100.00;99485.50;4914655;29;19915;-77
2021/10/12 05:16:19;;;;;;;;;;;;;;;10.76;100.00;99482.53;4931581;29;20405;-77
2021/10/12 05:18:46;;;;;;;;;;;;;;;10.57;100.00;99512.22;4931662;29;19926;-78
2021/10/12 05:21:12;;;;;;;;;;;;;;;10.87;100.00;99505.47;4915258;29;19916;-79
2021/10/12 05:23:37;;;;;;;;;;;;;;;10.78;100.00;99516.00;4931317;29;19942;-78
2021/10/12 05:26:02;;;;;;;;;;;;;;;10.99;100.00;99497.44;4915480;29;19919;-77
2021/10/12 05:28:28;;;;;;;;;;;;;;;10.86;100.00;99494.31;4915641;29;19922;-78
2021/10/12 05:30:53;;;;;;;;;;;;;;;10.85;100.00;99487.47;4987169;28;20361;-77
2021/10/12 05:33:20;;;;;;;;;;;;;;;10.64;100.00;99485.44;4934598;28;20288;-78
2021/10/12 05:35:46;;;;;;;;;;;;;;;10.74;100.00;99499.78;4916030;29;19943;-77
2021/10/12 05:38:12;;;;;;;;;;;;;;;10.92;100.00;99492.47;4931179;29;19923;-78
2021/10/12 05:40:37;;;;;;;;;;;;;;;10.93;100.00;99486.44;4931148;29;20318;-78
2021/10/12 05:43:03;;;;;;;;;;;;;;;10.76;100.00;99486.84;4930523;29;19915;-78
2021/10/12 05:45:28;;;;;;;;;;;;;;;10.83;100.00;99491.84;4917171;29;20460;-78
2021/10/12 05:47:53;;;;;;;;;;;;;;;10.45;100.00;99498.75;4916712;29;19915;-76
2021/10/12 05:50:19;;;;;;;;;;;;;;;10.49;100.00;99503.81;4900078;28;20013;-78
2021/10/12 05:53:00;;;;;;;;;;;;;;;10.92;100.00;99495.88;4916216;29;19919;-78
2021/10/12 05:56:16;;;;;;;;;;;;;;;10.70;100.00;99482.72;4902361;28;19916;-78
2021/10/12 05:58:13;;;;;;;;;;;;;;;10.65;100.00;99479.38;4936455;28;19919;-78
2021/10/12 06:00:39;;;;;;;;;;;;;;;10.51;100.00;99469.41;4916013;29;19966;-78
2021/10/12 06:03:04;;;;;;;;;;;;;;;10.74;100.00;99474.03;4916021;29;19919;-78
2021/10/12 06:05:29;;;;;;;;;;;;;;;10.80;100.00;99468.69;4917452;29;19919;-77
2021/10/12 06:07:55;;;;;;;;;;;;;;;10.76;100.00;99456.78;4900661;28;20014;-77
2021/10/12 06:10:20;;;;;;;;;;;;;;;10.96;100.00;99468.31;4915985;29;19915;-78
2021/10/12 06:12:46;;;;;;;;;;;;;;;10.92;100.00;99456.38;4915796;29;20013;-79
2021/10/12 06:15:11;;;;;;;;;;;;;;;11.10;100.00;99441.28;4915371;29;19915;-77
2021/10/12 06:17:36;;;;;;;;;;;;;;;11.33;100.00;99439.81;4915062;29;19915;-78
2021/10/12 06:20:02;;;;;;;;;;;;;;;10.73;100.00;99448.31;4914980;29;19930;-77
2021/10/12 06:22:27;;;;;;;;;;;;;;;11.11;100.00;99442.16;4915008;29;19915;-77
2021/10/12 06:24:53;;;;;;;;;;;;;;;11.04;100.00;99435.47;4899629;28;20006;-77
2021/10/12 06:27:20;;;;;;;;;;;;;;;11.27;100.00;99427.94;4916468;29;19966;-78
2021/10/12 06:29:45;;;;;;;;;;;;;;;11.22;100.00;99419.50;4916300;29;19915;-77
2021/10/12 06:32:11;;;;;;;;;;;;;;;11.27;100.00;99406.47;4916429;29;19938;-77
2021/10/12 06:34:36;;;;;;;;;;;;;;;11.16;100.00;99409.34;4915153;29;19915;-78
2021/10/12 06:37:01;;;;;;;;;;;;;;;11.24;100.00;99397.09;4914756;29;19938;-78
2021/10/12 06:39:27;;;;;;;;;;;;;;;11.30;100.00;99391.75;4915170;29;19951;-78
2021/10/12 06:41:52;;;;;;;;;;;;;;;11.19;100.00;99392.94;4915851;29;19962;-77
2021/10/12 06:44:17;;;;;;;;;;;;;;;11.04;100.00;99387.34;4915240;29;20294;-78
2021/10/12 06:46:43;;;;;;;;;;;;;;;10.88;100.00;99394.66;4899818;28;19916;-76
2021/10/12 06:49:08;;;;;;;;;;;;;;;11.03;100.00;99395.94;4915393;29;20010;-77
2021/10/12 06:51:33;;;;;;;;;;;;;;;11.00;100.00;99395.19;4915234;29;19915;-77
2021/10/12 06:53:58;;;;;;;;;;;;;;;11.15;100.00;99386.19;4914850;29;19915;-79
2021/10/12 06:56:24;;;;;;;;;;;;;;;11.36;100.00;99387.28;4898706;28;19915;-77
2021/10/12 06:58:50;;;;;;;;;;;;;;;11.24;100.00;99376.47;4929164;28;20389;-78
2021/10/12 07:01:15;;;;;;;;;;;;;;;10.91;100.00;99380.00;4928876;28;19922;-78
2021/10/12 07:03:40;;;;;;;;;;;;;;;11.59;100.00;99361.69;4949964;28;19919;-77
2021/10/12 07:06:06;;;;;;;;;;;;;;;11.44;100.00;99356.97;4938502;28;20030;-77
2021/10/12 07:08:31;;;;;;;;;;;;;;;11.22;100.00;99357.63;4954855;28;19914;-79
2021/10/12 07:10:56;;;;;;;;;;;;;;;11.08;100.00;99367.47;4973666;28;19919;-79
2021/10/12 07:13:29;;;;;;;;;;;;;;;11.45;100.00;99363.84;4931390;28;19956;-78
2021/10/12 07:15:57;;;;;;;;;;;;;;;10.99;100.00;99366.00;4906191;28;19926;-78
2021/10/12 07:18:23;;;;;;;;;;;;;;;10.93;100.00;99380.78;4915570;28;19934;-78
2021/10/12 07:20:49;;;;;;;;;;;;;;;11.12;100.00;99371.66;4959594;28;19919;-78
2021/10/12 07:23:14;;;;;;;;;;;;;;;11.19;100.00;99362.00;4928475;28;19915;-78
2021/10/12 07:25:40;;;;;;;;;;;;;;;11.22;100.00;99362.78;4936250;28;19930;-78
2021/10/12 07:28:11;;;;;;;;;;;;;;;11.20;100.00;99364.56;4937779;28;19923;-78
2021/10/12 07:30:36;;;;;;;;;;;;;;;11.00;100.00;99365.09;4918010;28;19960;-78
2021/10/12 07:33:02;;;;;;;;;;;;;;;11.23;100.00;99367.03;4954133;28;19961;-79
2021/10/12 07:35:27;;;;;;;;;;;;;;;10.68;100.00;99374.56;4962435;28;20631;-78
2021/10/12 07:37:55;;;;;;;;;;;;;;;10.82;100.00;99378.50;4911047;28;19922;-79
2021/10/12 07:40:20;;;;;;;;;;;;;;;11.17;100.00;99371.53;4892473;28;19969;-79
2021/10/12 07:42:45;;;;;;;;;;;;;;;10.74;100.00;99365.84;4958784;28;19921;-78
2021/10/12 07:45:10;;;;;;;;;;;;;;;10.96;100.00;99367.81;4952776;28;19926;-79
2021/10/12 07:47:36;;;;;;;;;;;;;;;11.16;100.00;99372.41;4908553;28;19926;-79
2021/10/12 07:50:02;;;;;;;;;;;;;;;10.82;100.00;99378.50;4916555;28;19925;-78
2021/10/12 07:52:30;;;;;;;;;;;;;;;10.63;100.00;99393.59;4955008;28;19915;-79
2021/10/12 07:57:30;;;;;;;;;;;;;;;11.12;100.00;99401.75;4950094;28;19960;-80
2021/10/12 07:59:55;;;;;;;;;;;;;;;10.80;100.00;99401.72;4933923;28;20326;-79
2021/10/12 08:02:20;;;;;;;;;;;;;;;10.71;100.00;99399.38;4968504;28;19929;-79
2021/10/12 08:04:46;;;;;;;;;;;;;;;10.62;100.00;99408.19;4969645;28;19919;-77
2021/10/12 08:07:11;;;;;;;;;;;;;;;10.86;100.00;99411.03;4975205;28;19919;-78
2021/10/12 08:09:38;;;;;;;;;;;;;;;10.97;100.00;99409.00;4950477;28;19921;-78
2021/10/12 08:12:04;;;;;;;;;;;;;;;11.00;100.00;99400.34;4958567;28;19923;-79
2021/10/12 08:14:30;;;;;;;;;;;;;;;11.02;100.00;99396.84;4947460;28;19942;-78
2021/10/12 08:16:55;;;;;;;;;;;;;;;11.04;100.00;99383.94;4973279;28;19926;-79
2021/10/12 08:19:20;;;;;;;;;;;;;;;10.76;100.00;99392.38;4926294;28;20416;-79
2021/10/12 08:21:46;;;;;;;;;;;;;;;10.64;100.00;99401.28;4957537;28;19977;-78
2021/10/12 08:24:12;;;;;;;;;;;;;;;10.50;100.00;99407.69;4939726;28;20368;-78
2021/10/12 08:26:39;;;;;;;;;;;;;;;10.62;100.00;99412.50;4948507;28;19957;-78
2021/10/12 08:29:05;;;;;;;;;;;;;;;10.55;100.00;99419.53;4954226;28;20285;-77
2021/10/12 08:31:30;;;;;;;;;;;;;;;10.62;100.00;99422.81;4942917;28;19926;-78
2021/10/12 08:33:55;;;;;;;;;;;;;;;10.87;100.00;99423.00;4967522;28;19965;-78
2021/10/12 08:36:21;;;;;;;;;;;;;;;11.03;100.00;99416.56;4964854;28;19919;-79
2021/10/12 08:38:46;;;;;;;;;;;;;;;11.37;100.00;99410.47;4957396;28;19927;-79
2021/10/12 08:41:11;;;;;;;;;;;;;;;11.22;100.00;99408.31;4946613;28;19966;-78
2021/10/12 08:43:37;;;;;;;;;;;;;;;11.32;100.00;99408.94;4959587;28;19930;-78
2021/10/12 08:46:03;;;;;;;;;;;;;;;11.06;100.00;99405.31;4957923;28;19952;-78
2021/10/12 08:48:31;;;;;;;;;;;;;;;11.05;100.00;99416.53;4946324;28;19964;-79
2021/10/12 08:50:57;;;;;;;;;;;;;;;11.16;100.00;99399.03;4951770;28;19927;-77
2021/10/12 08:53:23;;;;;;;;;;;;;;;11.23;100.00;99399.72;4961603;28;19977;-78
2021/10/12 08:55:48;;;;;;;;;;;;;;;11.14;100.00;99393.06;4946836;28;20048;-77
2021/10/12 08:58:13;;;;;;;;;;;;;;;11.26;100.00;99403.03;4934213;28;19987;-78
2021/10/12 09:00:39;;;;;;;;;;;;;;;10.96;100.00;99409.03;4973331;28;19921;-78
2021/10/12 09:05:50;;;;;;;;;;;;;;;11.09;100.00;99415.56;4960905;28;19919;-78
2021/10/12 09:08:16;;;;;;;;;;;;;;;11.14;100.00;99411.13;4967843;28;19985;-77
2021/10/12 09:10:41;;;;;;;;;;;;;;;11.13;100.00;99406.88;4947774;28;19923;-77
2021/10/12 09:13:07;;;;;;;;;;;;;;;11.14;100.00;99407.69;4952166;28;19944;-78
2021/10/12 09:15:32;;;;;;;;;;;;;;;11.13;100.00;99401.72;4962748;28;19951;-78
2021/10/12 09:17:57;;;;;;;;;;;;;;;10.97;100.00;99401.28;4960650;28;20287;-78
2021/10/12 09:20:22;;;;;;;;;;;;;;;10.85;100.00;99405.00;4964115;28;19975;-78
2021/10/12 09:23:03;;;;;;;;;;;;;;;10.94;100.00;99413.41;4948357;28;19970;-80
2021/10/12 09:25:35;;;;;;;;;;;;;;;11.18;100.00;99402.41;4941401;28;19970;-77
2021/10/12 09:28:01;;;;;;;;;;;;;;;11.10;100.00;99399.19;4951781;28;19934;-78
2021/10/12 09:30:28;;;;;;;;;;;;;;;11.23;100.00;99397.97;4965508;28;19923;-78
2021/10/12 09:33:00;;;;;;;;;;;;;;;11.86;100.00;99387.50;4954682;28;20300;-78
2021/10/12 09:35:27;;;;;;;;;;;;;;;11.47;100.00;99375.81;4964487;28;19951;-78
2021/10/12 09:38:01;;;;;;;;;;;;;;;11.49;100.00;99375.72;4946497;28;19925;-79
2021/10/12 09:40:26;;;;;;;;;;;;;;;11.48;100.00;99363.75;4930861;28;19930;-77
2021/10/12 09:42:52;;;;;;;;;;;;;;;11.64;100.00;99356.38;4934742;28;20008;-77
2021/10/12 09:45:17;;;;;;;;;;;;;;;11.88;100.00;99358.25;4950062;28;19942;-78
2021/10/12 09:47:43;;;;;;;;;;;;;;;11.85;100.00;99360.88;4923067;28;19958;-78
2021/10/12 09:50:09;;;;;;;;;;;;;;;11.81;100.00;99351.53;4907486;28;19927;-78
2021/10/12 09:52:38;;;;;;;;;;;;;;;11.74;100.00;99355.19;4912683;28;20117;-77
2021/10/12 09:55:04;;;;;;;;;;;;;;;11.92;100.00;99353.81;4978133;28;20484;-78
2021/10/12 09:57:30;;;;;;;;;;;;;;;11.54;100.00;99347.22;4975193;28;19919;-77
2021/10/12 09:59:56;;;;;;;;;;;;;;;11.57;100.00;99349.72;4969063;28;19938;-78
2021/10/12 10:02:22;;;;;;;;;;;;;;;11.72;100.00;99350.09;4945138;28;20285;-78
2021/10/12 10:04:48;;;;;;;;;;;;;;;11.73;100.00;99343.19;4974825;28;19923;-78
2021/10/12 10:07:36;;;;;;;;;;;;;;;11.34;100.00;99353.84;4908571;28;19977;-78
2021/10/12 10:10:04;;;;;;;;;;;;;;;11.43;100.00;99365.63;4972372;28;19956;-79
2021/10/12 10:12:29;;;;;;;;;;;;;;;11.44;100.00;99375.03;4972241;28;20288;-77
2021/10/12 10:14:54;;;;;;;;;;;;;;;11.36;100.00;99369.25;4893810;28;20042;-77
2021/10/12 10:17:20;;;;;;;;;;;;;;;11.69;100.00;99363.06;4960962;28;20324;-77
2021/10/12 10:19:46;;;;;;;;;;;;;;;11.59;100.00;99353.09;4966519;28;19923;-79
2021/10/12 10:22:30;;;;;;;;;;;;;;;11.36;100.00;99352.06;4914294;28;20497;-77
2021/10/12 10:24:59;;;;;;;;;;;;;;;11.21;100.00;99358.50;4954436;28;19926;-78
2021/10/12 10:27:32;;;;;;;;;;;;;;;11.39;100.00;99353.69;4971454;28;19924;-78
2021/10/12 10:30:16;;;;;;;;;;;;;;;11.36;100.00;99362.38;4897309;28;19927;-79
2021/10/12 10:32:50;;;;;;;;;;;;;;;11.10;100.00;99363.09;4944207;28;19925;-79
2021/10/12 10:35:22;;;;;;;;;;;;;;;11.17;100.00;99374.94;4962576;28;19915;-79
2021/10/12 10:37:50;;;;;;;;;;;;;;;11.10;100.00;99373.41;4970236;28;19920;-79
2021/10/12 10:40:27;;;;;;;;;;;;;;;10.96;100.00;99381.53;4963028;28;20379;-78
2021/10/12 10:42:54;;;;;;;;;;;;;;;11.02;100.00;99390.84;4950463;28;20276;-78
2021/10/12 10:45:19;;;;;;;;;;;;;;;11.04;100.00;99404.53;4964039;28;19945;-79
2021/10/12 10:47:44;;;;;;;;;;;;;;;11.04;100.00;99420.84;4965770;28;20024;-78
2021/10/12 10:50:10;;;;;;;;;;;;;;;11.28;100.00;99416.72;4942765;28;19934;-78
2021/10/12 10:52:46;;;;;;;;;;;;;;;11.25;100.00;99419.41;4950517;28;20318;-78
2021/10/12 10:55:18;;;;;;;;;;;;;;;11.36;100.00;99415.66;4956067;28;19965;-78
2021/10/12 10:58:02;;;;;;;;;;;;;;;11.45;100.00;99425.75;4896888;28;20478;-78
2021/10/12 11:00:27;;;;;;;;;;;;;;;11.43;100.00;99422.34;4922047;28;20015;-78
2021/10/12 11:02:54;;;;;;;;;;;;;;;11.35;100.00;99421.72;4963649;28;20017;-79
2021/10/12 11:05:49;;;;;;;;;;;;;;;10.98;100.00;99430.47;4923792;28;19923;-79
2021/10/12 11:08:16;;;;;;;;;;;;;;;11.22;100.00;99434.97;4931949;28;19919;-77
2021/10/12 11:10:42;;;;;;;;;;;;;;;11.23;100.00;99446.94;4959168;28;19929;-77
2021/10/12 11:13:08;;;;;;;;;;;;;;;11.49;100.00;99432.47;4962151;28;19963;-78
2021/10/12 11:15:33;;;;;;;;;;;;;;;11.30;100.00;99427.84;4959514;28;20364;-79
2021/10/12 11:18:05;;;;;;;;;;;;;;;11.13;100.00;99424.91;4965416;28;19918;-77
2021/10/12 11:20:41;;;;;;;;;;;;;;;11.36;100.00;99428.56;4951637;28;19951;-78
2021/10/12 11:23:07;;;;;;;;;;;;;;;11.20;100.00;99421.28;4962831;28;20005;-78
2021/10/12 11:25:32;;;;;;;;;;;;;;;11.23;100.00;99420.34;4952020;28;19927;-79
2021/10/12 11:28:05;;;;;;;;;;;;;;;11.16;100.00;99426.56;4942118;28;19937;-79
2021/10/12 11:30:32;;;;;;;;;;;;;;;11.31;100.00;99420.94;4972854;28;19936;-78
2021/10/12 11:32:57;;;;;;;;;;;;;;;11.51;100.00;99420.38;4974365;28;19918;-78
2021/10/12 11:35:31;;;;;;;;;;;;;;;11.57;100.00;99420.22;4969220;28;19923;-78
2021/10/12 11:37:56;;;;;;;;;;;;;;;11.14;100.00;99411.13;4965886;28;19934;-79
2021/10/12 11:40:24;;;;;;;;;;;;;;;11.24;100.00;99407.41;4914138;28;19927;-78
2021/10/12 11:42:51;;;;;;;;;;;;;;;11.02;100.00;99414.03;4914750;28;19916;-78
2021/10/12 11:45:17;;;;;;;;;;;;;;;10.91;100.00;99416.06;4967229;28;19923;-78
2021/10/12 11:47:43;;;;;;;;;;;;;;;10.75;100.00;99419.03;4940110;28;20007;-78
2021/10/12 11:50:09;;;;;;;;;;;;;;;10.83;100.00;99417.13;4963130;28;19927;-78
2021/10/12 11:52:34;;;;;;;;;;;;;;;10.68;100.00;99418.34;4890497;28;19934;-79
2021/10/12 11:55:06;;;;;;;;;;;;;;;10.56;100.00;99434.13;4959126;28;19923;-79
2021/10/12 11:57:31;;;;;;;;;;;;;;;10.46;100.00;99427.50;4946671;28;20345;-79
2021/10/12 11:59:56;;;;;;;;;;;;;;;10.81;100.00;99418.88;4953189;28;19935;-79
2021/10/12 12:02:22;;;;;;;;;;;;;;;10.38;100.00;99404.53;4958871;28;20174;-78
2021/10/12 12:04:47;;;;;;;;;;;;;;;10.58;100.00;99390.28;4942768;28;19946;-77
2021/10/12 12:07:13;;;;;;;;;;;;;;;10.81;100.00;99361.34;4962780;28;19989;-79
2021/10/12 12:09:38;;;;;;;;;;;;;;;11.38;100.00;99349.41;4915796;28;20382;-78
2021/10/12 12:12:07;;;;;;;;;;;;;;;11.04;100.00;99327.22;4969807;28;20441;-78
2021/10/12 12:14:32;;;;;;;;;;;;;;;11.43;100.00;99308.88;4968222;28;20048;-78
2021/10/12 12:17:10;;;;;;;;;;;;;;;11.95;100.00;99289.22;4959875;28;19983;-80
2021/10/12 12:19:42;;;;;;;;;;;;;;;12.61;100.00;99263.66;4939523;28;20399;-78
2021/10/12 12:22:19;;;;;;;;;;;;;;;12.95;100.00;99234.00;4942971;28;19923;-79
2021/10/12 12:25:00;;;;;;;;;;;;;;;12.36;100.00;99209.44;4951276;28;19919;-79
2021/10/12 12:27:26;;;;;;;;;;;;;;;12.26;100.00;99208.13;4898426;28;22352;-78
2021/10/12 12:30:06;;;;;;;;;;;;;;;12.23;100.00;99209.06;4960375;28;19919;-79
2021/10/12 12:32:31;;;;;;;;;;;;;;;11.88;100.00;99202.53;4901844;28;20290;-79
2021/10/12 12:35:03;;;;;;;;;;;;;;;12.06;100.00;99204.47;4961286;28;20021;-80
2021/10/12 12:37:29;;;;;;;;;;;;;;;12.11;100.00;99202.59;4938346;28;20015;-80